createdAt,value
2022-11-24T00:00:58.991Z,12.00
2022-11-24T00:01:58.976Z,12.10
2022-11-24T00:02:58.953Z,10.90
2022-11-24T00:03:58.855Z,11.60
2022-11-24T00:04:58.876Z,11.60
2022-11-24T00:05:58.852Z,12.30
2022-11-24T00:06:59.002Z,12.30
2022-11-24T00:07:58.836Z,13.10
2022-11-24T00:08:58.862Z,12.20
2022-11-24T00:09:58.818Z,10.90
2022-11-24T00:10:58.838Z,12.20
2022-11-24T00:11:58.809Z,10.60
2022-11-24T00:12:58.841Z,11.00
2022-11-24T00:13:58.790Z,14.20
2022-11-24T00:14:58.815Z,11.70
2022-11-24T00:15:58.809Z,12.30
2022-11-24T00:16:58.878Z,10.80
2022-11-24T00:17:58.823Z,10.90
2022-11-24T00:18:58.830Z,10.50
2022-11-24T00:19:58.766Z,10.60
2022-11-24T00:20:58.787Z,12.60
2022-11-24T00:21:58.735Z,11.70
2022-11-24T00:22:58.744Z,11.10
2022-11-24T00:23:58.714Z,10.60
2022-11-24T00:24:58.879Z,11.30
2022-11-24T00:25:58.696Z,11.10
2022-11-24T00:26:58.702Z,11.60
2022-11-24T00:27:58.689Z,12.00
2022-11-24T00:28:58.864Z,11.10
2022-11-24T00:29:58.667Z,11.30
2022-11-24T00:30:58.858Z,11.20
2022-11-24T00:31:58.634Z,11.50
2022-11-24T00:32:58.691Z,13.10
2022-11-24T00:33:58.636Z,10.90
2022-11-24T00:34:58.642Z,10.90
2022-11-24T00:35:58.612Z,11.80
2022-11-24T00:36:58.714Z,11.40
2022-11-24T00:37:58.638Z,10.80
2022-11-24T00:38:59.209Z,11.80
2022-11-24T00:39:58.612Z,10.90
2022-11-24T00:40:58.591Z,12.70
2022-11-24T00:41:58.548Z,9.60
2022-11-24T00:42:58.666Z,10.90
2022-11-24T00:43:58.546Z,11.30
2022-11-24T00:44:58.522Z,11.60
2022-11-24T00:45:58.631Z,10.50
2022-11-24T00:46:58.607Z,10.40
2022-11-24T00:47:58.476Z,10.90
2022-11-24T00:48:58.592Z,11.00
2022-11-24T00:49:58.460Z,10.50
2022-11-24T00:50:58.430Z,10.40
2022-11-24T00:51:58.413Z,10.10
2022-11-24T00:52:58.410Z,10.90
2022-11-24T00:53:58.387Z,11.10
2022-11-24T00:54:58.431Z,11.10
2022-11-24T00:55:58.390Z,10.40
2022-11-24T00:56:58.409Z,11.10
2022-11-24T00:57:58.370Z,12.20
2022-11-24T00:58:58.361Z,12.50
2022-11-24T00:59:58.344Z,10.80
2022-11-24T01:00:58.439Z,10.20
2022-11-24T01:01:58.357Z,10.20
2022-11-24T01:02:58.911Z,10.80
2022-11-24T01:03:58.321Z,12.20
2022-11-24T01:04:58.354Z,11.70
2022-11-24T01:05:58.330Z,10.70
2022-11-24T01:06:58.491Z,10.60
2022-11-24T01:07:58.304Z,10.70
2022-11-24T01:08:58.339Z,11.40
2022-11-24T01:09:58.306Z,10.60
2022-11-24T01:10:58.330Z,10.30
2022-11-24T01:11:58.340Z,10.80
2022-11-24T01:12:58.460Z,11.80
2022-11-24T01:13:58.311Z,12.60
2022-11-24T01:14:58.306Z,10.90
2022-11-24T01:15:58.346Z,11.20
2022-11-24T01:16:58.294Z,10.30
2022-11-24T01:17:58.263Z,11.30
2022-11-24T01:18:58.275Z,11.60
2022-11-24T01:19:58.239Z,11.10
2022-11-24T01:20:58.261Z,10.60
2022-11-24T01:21:58.212Z,10.20
2022-11-24T01:22:58.255Z,11.40
2022-11-24T01:23:58.185Z,10.50
2022-11-24T01:24:58.354Z,10.60
2022-11-24T01:25:58.168Z,10.80
2022-11-24T01:26:58.184Z,10.60
2022-11-24T01:27:58.150Z,9.50
2022-11-24T01:29:02.045Z,10.90
2022-11-24T01:30:06.091Z,10.80
2022-11-24T01:31:06.294Z,10.50
2022-11-24T01:32:06.118Z,11.00
2022-11-24T01:33:06.201Z,10.30
2022-11-24T01:34:06.071Z,10.60
2022-11-24T01:35:06.112Z,10.80
2022-11-24T01:36:06.091Z,9.30
2022-11-24T01:37:06.080Z,10.60
2022-11-24T01:38:06.009Z,9.60
2022-11-24T01:39:06.041Z,9.80
2022-11-24T01:40:05.977Z,11.00
2022-11-24T01:41:06.011Z,9.30
2022-11-24T01:42:05.973Z,10.30
2022-11-24T01:43:05.969Z,10.10
2022-11-24T01:44:06.094Z,10.70
2022-11-24T01:45:05.933Z,10.60
2022-11-24T01:46:05.952Z,10.00
2022-11-24T01:47:05.903Z,10.30
2022-11-24T01:48:05.886Z,10.80
2022-11-24T01:49:05.924Z,10.80
2022-11-24T01:50:05.856Z,10.30
2022-11-24T01:51:05.856Z,10.10
2022-11-24T01:52:05.837Z,10.20
2022-11-24T01:53:05.840Z,10.10
2022-11-24T01:54:05.837Z,9.70
2022-11-24T01:55:05.960Z,10.00
2022-11-24T01:56:05.806Z,8.70
2022-11-24T01:57:05.832Z,9.30
2022-11-24T01:58:05.822Z,9.40
2022-11-24T01:59:05.840Z,10.20
2022-11-24T02:00:05.784Z,8.90
2022-11-24T02:01:05.877Z,9.60
2022-11-24T02:02:05.875Z,9.70
2022-11-24T02:03:05.822Z,10.20
2022-11-24T02:04:05.734Z,9.90
2022-11-24T02:05:05.763Z,9.30
2022-11-24T02:07:59.757Z,9.10
2022-11-24T02:08:59.732Z,10.30
2022-11-24T02:09:59.717Z,9.20
2022-11-24T02:10:59.742Z,8.90
2022-11-24T02:11:59.678Z,8.60
2022-11-24T02:12:59.692Z,9.80
2022-11-24T02:13:59.659Z,9.40
2022-11-24T02:14:59.685Z,9.30
2022-11-24T02:15:59.703Z,8.60
2022-11-24T02:16:59.775Z,9.80
2022-11-24T02:17:59.642Z,9.20
2022-11-24T02:18:59.669Z,10.00
2022-11-24T02:19:59.633Z,9.60
2022-11-24T02:20:59.648Z,9.90
2022-11-24T02:21:59.609Z,8.90
2022-11-24T02:22:59.728Z,9.30
2022-11-24T02:23:59.594Z,8.40
2022-11-24T02:24:59.614Z,9.00
2022-11-24T02:25:59.579Z,8.80
2022-11-24T02:26:59.589Z,8.60
2022-11-24T02:27:59.566Z,9.00
2022-11-24T02:28:59.718Z,9.00
2022-11-24T02:29:59.645Z,8.50
2022-11-24T02:30:59.635Z,9.30
2022-11-24T02:31:59.505Z,8.30
2022-11-24T02:32:59.498Z,9.10
2022-11-24T02:33:59.475Z,8.90
2022-11-24T02:34:59.601Z,8.90
2022-11-24T02:35:59.452Z,7.80
2022-11-24T02:36:59.453Z,9.10
2022-11-24T02:37:59.441Z,8.70
2022-11-24T02:38:59.444Z,9.10
2022-11-24T02:39:59.440Z,9.00
2022-11-24T02:40:59.532Z,8.70
2022-11-24T02:41:59.394Z,7.90
2022-11-24T02:42:59.405Z,8.60
2022-11-24T02:43:59.357Z,8.30
2022-11-24T02:44:59.354Z,7.70
2022-11-24T02:45:59.424Z,8.30
2022-11-24T02:46:59.507Z,8.60
2022-11-24T02:47:59.298Z,8.80
2022-11-24T02:48:59.371Z,8.40
2022-11-24T02:49:59.316Z,8.90
2022-11-24T02:50:59.341Z,8.50
2022-11-24T02:51:59.364Z,7.90
2022-11-24T02:52:59.298Z,8.90
2022-11-24T02:53:59.249Z,8.50
2022-11-24T02:54:59.251Z,8.80
2022-11-24T02:56:03.183Z,8.60
2022-11-24T02:57:03.271Z,9.10
2022-11-24T02:58:03.403Z,9.40
2022-11-24T02:59:03.265Z,8.40
2022-11-24T03:00:03.237Z,8.00
2022-11-24T03:01:03.262Z,8.10
2022-11-24T03:02:03.451Z,9.00
2022-11-24T03:03:03.961Z,8.70
2022-11-24T03:04:03.231Z,8.70
2022-11-24T03:05:03.242Z,8.60
2022-11-24T03:06:03.288Z,8.20
2022-11-24T03:07:03.234Z,8.20
2022-11-24T03:08:03.207Z,9.80
2022-11-24T03:09:03.354Z,8.80
2022-11-24T03:10:03.196Z,8.60
2022-11-24T03:11:03.228Z,9.10
2022-11-24T03:12:03.180Z,8.90
2022-11-24T03:13:03.302Z,8.30
2022-11-24T03:14:03.182Z,8.20
2022-11-24T03:15:03.238Z,8.90
2022-11-24T03:16:03.258Z,8.30
2022-11-24T03:17:03.183Z,8.30
2022-11-24T03:18:03.184Z,8.10
2022-11-24T03:19:03.204Z,8.80
2022-11-24T03:20:04.949Z,9.40
2022-11-24T03:21:03.218Z,8.90
2022-11-24T03:22:03.164Z,8.50
2022-11-24T03:23:03.187Z,8.80
2022-11-24T03:24:03.168Z,8.20
2022-11-24T03:25:03.660Z,8.30
2022-11-24T03:26:03.143Z,8.70
2022-11-24T03:27:03.158Z,8.70
2022-11-24T03:28:03.120Z,9.00
2022-11-24T03:29:03.133Z,8.00
2022-11-24T03:30:03.119Z,9.80
2022-11-24T03:31:03.198Z,9.20
2022-11-24T03:32:03.099Z,8.60
2022-11-24T03:33:03.101Z,8.40
2022-11-24T03:34:03.057Z,8.50
2022-11-24T03:35:03.198Z,8.90
2022-11-24T03:36:03.063Z,9.20
2022-11-24T03:37:03.057Z,10.20
2022-11-24T03:38:03.082Z,8.60
2022-11-24T03:39:03.076Z,9.20
2022-11-24T03:40:03.025Z,9.40
2022-11-24T03:41:03.032Z,8.70
2022-11-24T03:42:02.994Z,8.40
2022-11-24T03:43:03.040Z,8.60
2022-11-24T03:44:03.002Z,10.70
2022-11-24T03:45:29.900Z,8.20
2022-11-24T03:46:03.078Z,8.60
2022-11-24T03:47:02.997Z,9.00
2022-11-24T03:48:02.997Z,9.30
2022-11-24T03:49:02.982Z,8.80
2022-11-24T03:50:02.962Z,8.40
2022-11-24T03:51:03.021Z,8.30
2022-11-24T03:52:07.775Z,9.50
2022-11-24T03:53:03.002Z,8.90
2022-11-24T03:54:02.980Z,9.30
2022-11-24T03:55:03.005Z,8.90
2022-11-24T03:56:02.984Z,8.80
2022-11-24T03:57:03.104Z,9.00
2022-11-24T03:58:02.952Z,8.30
2022-11-24T03:59:02.954Z,8.20
2022-11-24T04:00:02.948Z,8.90
2022-11-24T04:01:02.933Z,8.10
2022-11-24T04:02:02.981Z,7.90
2022-11-24T04:03:03.099Z,9.40
2022-11-24T04:04:02.930Z,8.30
2022-11-24T04:05:02.934Z,8.50
2022-11-24T04:06:02.918Z,8.70
2022-11-24T04:07:02.957Z,8.30
2022-11-24T04:08:03.076Z,8.60
2022-11-24T04:09:02.953Z,8.60
2022-11-24T04:10:02.978Z,8.80
2022-11-24T04:11:02.969Z,9.70
2022-11-24T04:12:02.941Z,8.90
2022-11-24T04:13:02.942Z,9.00
2022-11-24T04:14:02.932Z,8.00
2022-11-24T04:15:02.963Z,9.30
2022-11-24T04:16:02.944Z,9.10
2022-11-24T04:17:02.935Z,9.00
2022-11-24T04:18:02.911Z,8.90
2022-11-24T04:19:02.949Z,8.60
2022-11-24T04:20:02.905Z,8.80
2022-11-24T04:21:03.030Z,8.50
2022-11-24T04:22:02.911Z,8.80
2022-11-24T04:23:02.919Z,8.60
2022-11-24T04:24:02.903Z,8.80
2022-11-24T04:25:02.923Z,8.60
2022-11-24T04:26:02.928Z,8.70
2022-11-24T04:27:03.046Z,8.70
2022-11-24T04:28:02.915Z,9.10
2022-11-24T04:29:02.941Z,9.00
2022-11-24T04:30:03.011Z,10.10
2022-11-24T04:31:02.993Z,8.60
2022-11-24T04:32:02.892Z,8.50
2022-11-24T04:33:02.964Z,8.80
2022-11-24T04:34:02.892Z,9.00
2022-11-24T04:35:02.902Z,8.90
2022-11-24T04:36:02.888Z,9.30
2022-11-24T04:37:02.905Z,9.40
2022-11-24T04:38:02.913Z,9.00
2022-11-24T04:39:24.142Z,8.70
2022-11-24T04:40:02.868Z,9.00
2022-11-24T04:41:02.926Z,9.60
2022-11-24T04:42:02.866Z,9.90
2022-11-24T04:43:02.915Z,8.90
2022-11-24T04:44:02.872Z,8.70
2022-11-24T04:45:02.899Z,8.80
2022-11-24T04:46:02.864Z,8.90
2022-11-24T04:47:02.946Z,9.50
2022-11-24T04:48:02.845Z,7.90
2022-11-24T04:49:02.864Z,9.00
2022-11-24T04:50:02.873Z,9.10
2022-11-24T04:51:03.012Z,9.80
2022-11-24T04:52:02.877Z,9.80
2022-11-24T04:53:02.863Z,8.50
2022-11-24T04:54:02.840Z,9.70
2022-11-24T04:55:02.863Z,9.60
2022-11-24T04:56:02.810Z,9.70
2022-11-24T04:57:02.836Z,9.00
2022-11-24T04:58:02.818Z,10.20
2022-11-24T04:59:07.861Z,9.80
2022-11-24T05:00:02.767Z,10.70
2022-11-24T05:01:02.754Z,9.20
2022-11-24T05:02:02.775Z,10.00
2022-11-24T05:03:02.772Z,10.40
2022-11-24T05:04:02.823Z,9.70
2022-11-24T05:05:02.743Z,10.20
2022-11-24T05:06:02.722Z,9.60
2022-11-24T05:07:02.733Z,10.40
2022-11-24T05:08:02.780Z,9.20
2022-11-24T05:09:02.753Z,10.30
2022-11-24T05:10:03.423Z,9.80
2022-11-24T05:11:08.630Z,9.60
2022-11-24T05:12:08.728Z,10.60
2022-11-24T05:13:08.754Z,10.50
2022-11-24T05:14:08.740Z,10.20
2022-11-24T05:15:09.178Z,9.80
2022-11-24T05:16:08.767Z,10.70
2022-11-24T05:17:08.702Z,10.60
2022-11-24T05:18:08.717Z,9.60
2022-11-24T05:19:08.733Z,10.90
2022-11-24T05:20:08.744Z,10.10
2022-11-24T05:21:08.685Z,11.00
2022-11-24T05:22:08.723Z,10.10
2022-11-24T05:23:08.716Z,9.80
2022-11-24T05:24:08.878Z,9.10
2022-11-24T05:25:08.752Z,10.20
2022-11-24T05:26:08.731Z,10.40
2022-11-24T05:27:08.696Z,10.60
2022-11-24T05:28:08.725Z,8.90
2022-11-24T05:29:08.709Z,10.10
2022-11-24T05:30:08.712Z,9.60
2022-11-24T05:31:08.850Z,9.30
2022-11-24T05:32:08.726Z,10.70
2022-11-24T05:33:08.708Z,10.70
2022-11-24T05:34:08.727Z,9.80
2022-11-24T05:35:08.876Z,10.20
2022-11-24T05:36:08.723Z,9.10
2022-11-24T05:37:08.832Z,10.30
2022-11-24T05:38:08.714Z,10.00
2022-11-24T05:39:08.699Z,9.70
2022-11-24T05:40:08.731Z,10.10
2022-11-24T05:41:08.687Z,8.90
2022-11-24T05:42:08.708Z,9.90
2022-11-24T05:43:08.706Z,8.90
2022-11-24T05:44:08.721Z,10.00
2022-11-24T05:45:08.689Z,9.20
2022-11-24T05:46:08.711Z,8.80
2022-11-24T05:47:08.768Z,10.20
2022-11-24T05:48:08.688Z,9.20
2022-11-24T05:49:08.700Z,9.80
2022-11-24T05:50:08.691Z,10.10
2022-11-24T05:51:09.568Z,9.70
2022-11-24T05:52:08.704Z,8.70
2022-11-24T05:53:08.675Z,8.80
2022-11-24T05:54:08.701Z,8.70
2022-11-24T05:55:08.778Z,9.30
2022-11-24T05:56:08.691Z,10.10
2022-11-24T05:57:08.795Z,8.50
2022-11-24T05:58:08.702Z,9.50
2022-11-24T05:59:10.090Z,8.80
2022-11-24T06:00:08.704Z,8.70
2022-11-24T06:01:08.694Z,8.80
2022-11-24T06:02:08.805Z,9.00
2022-11-24T06:03:08.842Z,9.10
2022-11-24T06:04:08.682Z,8.90
2022-11-24T06:05:08.676Z,8.60
2022-11-24T06:06:08.672Z,8.80
2022-11-24T06:07:08.809Z,8.40
2022-11-24T06:08:08.690Z,8.80
2022-11-24T06:09:08.637Z,9.20
2022-11-24T06:10:08.645Z,7.80
2022-11-24T06:11:08.636Z,8.30
2022-11-24T06:12:13.562Z,7.60
2022-11-24T06:13:19.578Z,9.00
2022-11-24T06:14:19.649Z,8.00
2022-11-24T06:15:19.631Z,8.60
2022-11-24T06:16:19.736Z,8.40
2022-11-24T06:17:19.772Z,9.70
2022-11-24T06:18:24.557Z,8.00
2022-11-24T06:19:24.672Z,8.10
2022-11-24T06:20:29.686Z,8.40
2022-11-24T06:21:24.624Z,7.70
2022-11-24T06:22:24.628Z,8.30
2022-11-24T06:23:24.628Z,7.70
2022-11-24T06:24:24.598Z,8.20
2022-11-24T06:25:24.602Z,7.60
2022-11-24T06:26:24.610Z,7.80
2022-11-24T06:27:24.593Z,7.80
2022-11-24T06:28:24.692Z,8.00
2022-11-24T06:29:24.608Z,7.70
2022-11-24T06:32:18.484Z,7.30
2022-11-24T06:33:18.585Z,7.50
2022-11-24T06:34:18.695Z,8.00
2022-11-24T06:35:18.577Z,7.40
2022-11-24T06:36:18.554Z,7.30
2022-11-24T06:37:18.598Z,7.60
2022-11-24T06:38:24.118Z,7.50
2022-11-24T06:39:18.625Z,8.00
2022-11-24T06:40:18.691Z,7.40
2022-11-24T06:41:18.648Z,7.00
2022-11-24T06:42:18.602Z,6.90
2022-11-24T06:43:18.614Z,7.00
2022-11-24T06:44:18.611Z,6.90
2022-11-24T06:45:23.532Z,7.00
2022-11-24T06:46:23.722Z,7.10
2022-11-24T06:47:23.610Z,6.40
2022-11-24T06:48:23.613Z,6.40
2022-11-24T06:49:23.772Z,6.90
2022-11-24T06:50:25.236Z,7.00
2022-11-24T06:51:23.608Z,6.60
2022-11-24T06:52:23.629Z,6.40
2022-11-24T06:53:23.619Z,6.70
2022-11-24T06:54:23.612Z,7.30
2022-11-24T06:55:23.593Z,5.90
2022-11-24T06:56:23.630Z,6.30
2022-11-24T06:57:23.618Z,6.60
2022-11-24T06:58:23.628Z,6.70
2022-11-24T06:59:23.628Z,6.20
2022-11-24T07:00:23.773Z,6.60
2022-11-24T07:01:23.777Z,6.60
2022-11-24T07:02:23.753Z,7.00
2022-11-24T07:03:23.711Z,7.10
2022-11-24T07:04:23.626Z,7.10
2022-11-24T07:05:23.597Z,6.50
2022-11-24T07:06:23.627Z,5.90
2022-11-24T07:07:23.627Z,6.50
2022-11-24T07:08:24.156Z,6.70
2022-11-24T07:09:28.537Z,7.40
2022-11-24T07:10:28.701Z,6.90
2022-11-24T07:11:28.623Z,7.10
2022-11-24T07:12:28.601Z,6.70
2022-11-24T07:13:28.745Z,7.10
2022-11-24T07:14:28.609Z,7.30
2022-11-24T07:15:28.627Z,6.90
2022-11-24T07:16:28.728Z,7.10
2022-11-24T07:17:28.630Z,7.60
2022-11-24T07:18:28.604Z,7.20
2022-11-24T07:19:28.739Z,7.60
2022-11-24T07:20:28.683Z,7.10
2022-11-24T07:21:28.651Z,6.60
2022-11-24T07:22:28.629Z,7.50
2022-11-24T07:23:28.638Z,7.10
2022-11-24T07:24:28.633Z,7.10
2022-11-24T07:25:28.674Z,6.70
2022-11-24T07:26:28.641Z,8.10
2022-11-24T07:27:28.666Z,7.50
2022-11-24T07:28:28.635Z,7.20
2022-11-24T07:29:28.641Z,7.80
2022-11-24T07:30:28.868Z,7.20
2022-11-24T07:31:28.727Z,7.40
2022-11-24T07:32:28.614Z,8.00
2022-11-24T07:33:28.657Z,8.20
2022-11-24T07:34:28.611Z,9.30
2022-11-24T07:35:28.654Z,9.30
2022-11-24T07:36:28.640Z,9.30
2022-11-24T07:37:31.680Z,8.80
2022-11-24T07:38:28.642Z,9.70
2022-11-24T07:39:33.529Z,9.50
2022-11-24T07:40:33.691Z,10.00
2022-11-24T07:41:33.640Z,10.10
2022-11-24T07:42:33.781Z,10.30
2022-11-24T07:43:33.639Z,11.00
2022-11-24T07:44:33.989Z,11.30
2022-11-24T07:45:33.715Z,10.80
2022-11-24T07:46:33.652Z,12.50
2022-11-24T07:47:33.627Z,11.60
2022-11-24T07:48:33.666Z,12.90
2022-11-24T07:49:33.616Z,12.20
2022-11-24T07:50:33.635Z,11.90
2022-11-24T07:51:33.778Z,12.00
2022-11-24T07:52:33.629Z,12.90
2022-11-24T07:53:33.610Z,12.90
2022-11-24T07:54:33.947Z,12.50
2022-11-24T07:55:33.600Z,14.30
2022-11-24T07:56:33.620Z,13.30
2022-11-24T07:57:33.602Z,14.00
2022-11-24T07:58:33.623Z,13.00
2022-11-24T07:59:33.591Z,14.50
2022-11-24T08:00:33.751Z,14.40
2022-11-24T08:01:33.660Z,13.70
2022-11-24T08:02:33.718Z,14.80
2022-11-24T08:03:33.668Z,14.50
2022-11-24T08:04:33.956Z,15.50
2022-11-24T08:05:33.611Z,15.70
2022-11-24T08:06:39.773Z,14.80
2022-11-24T08:07:33.693Z,15.20
2022-11-24T08:08:33.641Z,16.10
2022-11-24T08:09:33.618Z,15.50
2022-11-24T08:10:33.634Z,15.60
2022-11-24T08:11:33.625Z,15.90
2022-11-24T08:12:33.776Z,16.50
2022-11-24T08:13:33.736Z,16.40
2022-11-24T08:14:34.019Z,17.90
2022-11-24T08:15:33.623Z,17.80
2022-11-24T08:16:33.708Z,18.00
2022-11-24T08:17:33.618Z,18.30
2022-11-24T08:18:33.673Z,18.80
2022-11-24T08:19:33.630Z,17.50
2022-11-24T08:20:33.652Z,18.30
2022-11-24T08:21:33.647Z,18.40
2022-11-24T08:22:33.656Z,17.80
2022-11-24T08:23:33.640Z,18.30
2022-11-24T08:24:33.982Z,19.30
2022-11-24T08:25:33.646Z,19.70
2022-11-24T08:26:33.670Z,18.90
2022-11-24T08:27:33.651Z,19.80
2022-11-24T08:28:33.658Z,19.30
2022-11-24T08:29:33.611Z,20.90
2022-11-24T08:30:33.650Z,19.80
2022-11-24T08:31:34.048Z,21.70
2022-11-24T08:32:33.619Z,20.70
2022-11-24T08:33:33.597Z,23.00
2022-11-24T08:34:33.869Z,21.50
2022-11-24T08:35:33.626Z,21.40
2022-11-24T08:36:33.731Z,22.20
2022-11-24T08:37:33.605Z,22.30
2022-11-24T08:38:33.637Z,22.10
2022-11-24T08:39:33.615Z,22.00
2022-11-24T08:40:33.644Z,23.60
2022-11-24T08:41:33.630Z,22.80
2022-11-24T08:42:33.685Z,22.50
2022-11-24T08:43:33.627Z,23.20
2022-11-24T08:44:34.093Z,22.00
2022-11-24T08:45:39.740Z,21.20
2022-11-24T08:46:38.728Z,21.40
2022-11-24T08:47:38.769Z,21.50
2022-11-24T08:48:38.631Z,21.40
2022-11-24T08:49:38.633Z,22.60
2022-11-24T08:50:38.599Z,22.70
2022-11-24T08:51:38.622Z,21.60
2022-11-24T08:52:38.615Z,23.50
2022-11-24T08:53:43.595Z,22.80
2022-11-24T08:54:43.605Z,21.80
2022-11-24T08:55:43.602Z,21.30
2022-11-24T08:56:43.741Z,22.10
2022-11-24T08:57:43.583Z,22.10
2022-11-24T08:58:49.672Z,21.70
2022-11-24T08:59:49.595Z,21.90
2022-11-24T09:00:49.574Z,21.00
2022-11-24T09:01:49.711Z,21.70
2022-11-24T09:02:49.594Z,21.20
2022-11-24T09:03:51.092Z,20.40
2022-11-24T09:04:49.648Z,20.70
2022-11-24T09:05:52.497Z,19.60
2022-11-24T09:06:49.753Z,20.10
2022-11-24T09:07:49.692Z,19.30
2022-11-24T09:08:49.598Z,20.00
2022-11-24T09:09:49.608Z,20.40
2022-11-24T09:10:49.585Z,19.80
2022-11-24T09:11:49.594Z,20.80
2022-11-24T09:12:49.576Z,19.90
2022-11-24T09:13:49.639Z,19.90
2022-11-24T09:14:49.581Z,19.40
2022-11-24T09:15:49.736Z,18.80
2022-11-24T09:16:49.655Z,20.50
2022-11-24T09:17:49.745Z,20.80
2022-11-24T09:18:49.576Z,18.80
2022-11-24T09:19:49.595Z,18.60
2022-11-24T09:20:49.577Z,17.60
2022-11-24T09:21:49.729Z,17.90
2022-11-24T09:22:49.570Z,17.90
2022-11-24T09:23:49.585Z,17.80
2022-11-24T09:24:49.562Z,17.30
2022-11-24T09:25:49.583Z,16.30
2022-11-24T09:26:49.585Z,16.50
2022-11-24T09:27:49.707Z,18.40
2022-11-24T09:28:49.597Z,16.70
2022-11-24T09:29:49.585Z,16.50
2022-11-24T09:30:49.641Z,16.30
2022-11-24T09:31:49.580Z,14.60
2022-11-24T09:32:49.567Z,16.20
2022-11-24T09:33:49.619Z,14.60
2022-11-24T09:34:49.571Z,15.30
2022-11-24T09:35:49.593Z,15.00
2022-11-24T09:36:49.569Z,15.00
2022-11-24T09:37:49.581Z,14.00
2022-11-24T09:38:49.561Z,15.20
2022-11-24T09:39:49.689Z,13.70
2022-11-24T09:40:49.562Z,14.80
2022-11-24T09:41:49.606Z,13.50
2022-11-24T09:42:53.555Z,14.40
2022-11-24T09:43:49.628Z,14.20
2022-11-24T09:44:49.587Z,14.70
2022-11-24T09:46:04.987Z,13.60
2022-11-24T09:46:49.634Z,14.80
2022-11-24T09:47:49.604Z,13.80
2022-11-24T09:48:49.606Z,14.40
2022-11-24T09:49:51.404Z,14.20
2022-11-24T09:50:49.733Z,14.00
2022-11-24T09:51:49.705Z,14.10
2022-11-24T09:52:49.581Z,13.40
2022-11-24T09:53:49.592Z,14.60
2022-11-24T09:54:49.564Z,14.40
2022-11-24T09:55:54.460Z,13.70
2022-11-24T09:56:54.596Z,13.60
2022-11-24T09:57:54.565Z,13.80
2022-11-24T09:58:54.614Z,15.20
2022-11-24T09:59:54.593Z,13.70
2022-11-24T10:00:54.785Z,13.70
2022-11-24T10:01:54.651Z,13.80
2022-11-24T10:02:59.499Z,15.00
2022-11-24T10:04:05.646Z,15.00
2022-11-24T10:04:59.645Z,13.50
2022-11-24T10:05:59.592Z,15.30
2022-11-24T10:06:59.585Z,15.10
2022-11-24T10:07:59.778Z,15.70
2022-11-24T10:08:59.575Z,14.10
2022-11-24T10:10:00.160Z,13.50
2022-11-24T10:10:59.626Z,14.80
2022-11-24T10:11:59.602Z,14.40
2022-11-24T10:12:59.579Z,14.40
2022-11-24T10:13:59.727Z,14.00
2022-11-24T10:14:59.554Z,14.00
2022-11-24T10:15:59.726Z,13.00
2022-11-24T10:16:59.562Z,14.70
2022-11-24T10:17:59.593Z,14.40
2022-11-24T10:18:59.571Z,12.80
2022-11-24T10:19:59.705Z,13.50
2022-11-24T10:20:59.579Z,13.20
2022-11-24T10:21:59.770Z,13.60
2022-11-24T10:22:59.601Z,13.80
2022-11-24T10:23:59.624Z,13.10
2022-11-24T10:24:59.629Z,13.10
2022-11-24T10:25:59.721Z,13.90
2022-11-24T10:26:59.623Z,13.90
2022-11-24T10:27:59.636Z,13.70
2022-11-24T10:28:59.618Z,13.00
2022-11-24T10:29:59.642Z,14.70
2022-11-24T10:30:59.669Z,13.00
2022-11-24T10:31:59.693Z,13.10
2022-11-24T10:32:59.778Z,12.00
2022-11-24T10:33:59.677Z,11.80
2022-11-24T10:34:59.687Z,12.00
2022-11-24T10:35:59.694Z,12.10
2022-11-24T10:36:59.755Z,12.30
2022-11-24T10:37:59.689Z,11.90
2022-11-24T10:38:59.668Z,11.80
2022-11-24T10:40:00.291Z,11.10
2022-11-24T10:40:59.818Z,11.40
2022-11-24T10:41:59.703Z,11.50
2022-11-24T10:42:59.831Z,10.90
2022-11-24T10:45:05.740Z,11.80
2022-11-24T10:46:05.823Z,11.20
2022-11-24T10:47:05.725Z,11.20
2022-11-24T10:48:05.787Z,12.30
2022-11-24T10:49:06.723Z,10.70
2022-11-24T10:50:06.748Z,11.90
2022-11-24T10:51:06.765Z,12.40
2022-11-24T10:52:06.794Z,12.20
2022-11-24T10:53:06.868Z,11.60
2022-11-24T10:54:06.808Z,11.40
2022-11-24T10:57:00.858Z,11.20
2022-11-24T10:58:06.702Z,10.70
2022-11-24T10:59:06.836Z,10.80
2022-11-24T11:00:06.806Z,11.20
2022-11-24T11:01:06.936Z,10.70
2022-11-24T11:02:06.987Z,10.20
2022-11-24T11:03:06.955Z,10.30
2022-11-24T11:04:06.835Z,10.80
2022-11-24T11:05:06.984Z,10.80
2022-11-24T11:06:06.869Z,11.20
2022-11-24T11:07:07.101Z,10.50
2022-11-24T11:08:06.897Z,10.40
2022-11-24T11:09:06.885Z,11.10
2022-11-24T11:10:06.867Z,10.30
2022-11-24T11:11:11.917Z,10.20
2022-11-24T11:12:36.214Z,10.50
2022-11-24T11:13:11.875Z,11.10
2022-11-24T11:14:11.897Z,10.10
2022-11-24T11:15:11.878Z,10.70
2022-11-24T11:16:12.089Z,9.90
2022-11-24T11:17:12.039Z,10.40
2022-11-24T11:18:16.855Z,10.90
2022-11-24T11:19:47.513Z,10.10
2022-11-24T11:20:16.948Z,10.10
2022-11-24T11:21:17.040Z,9.80
2022-11-24T11:22:16.956Z,10.90
2022-11-24T11:23:22.854Z,10.20
2022-11-24T11:24:22.967Z,10.30
2022-11-24T11:25:22.961Z,10.50
2022-11-24T11:26:23.009Z,9.50
2022-11-24T11:27:22.999Z,10.10
2022-11-24T11:28:26.913Z,10.00
2022-11-24T11:31:27.046Z,10.20
2022-11-24T11:34:30.310Z,10.10
2022-11-24T11:35:27.132Z,9.50
2022-11-24T11:36:27.178Z,9.70
2022-11-24T11:37:27.202Z,9.70
2022-11-24T11:38:27.097Z,10.90
2022-11-24T11:39:27.110Z,9.50
2022-11-24T11:40:27.093Z,10.30
2022-11-24T11:41:27.140Z,9.90
2022-11-24T11:43:00.290Z,9.30
2022-11-24T11:43:27.132Z,9.10
2022-11-24T11:44:27.133Z,10.20
2022-11-24T11:45:27.204Z,10.00
2022-11-24T11:46:27.217Z,8.90
2022-11-24T11:47:27.166Z,10.70
2022-11-24T11:48:27.305Z,9.70
2022-11-24T11:49:27.192Z,10.30
2022-11-24T11:50:27.239Z,10.10
2022-11-24T11:51:27.231Z,9.90
2022-11-24T11:52:27.213Z,9.70
2022-11-24T11:53:27.220Z,10.00
2022-11-24T11:54:27.318Z,11.00
2022-11-24T11:55:27.236Z,10.40
2022-11-24T11:56:27.215Z,9.50
2022-11-24T11:57:27.225Z,9.70
2022-11-24T11:58:27.216Z,9.60
2022-11-24T11:59:27.333Z,11.00
2022-11-24T12:00:27.334Z,10.20
2022-11-24T12:01:27.298Z,10.10
2022-11-24T12:02:27.355Z,10.20
2022-11-24T12:03:27.353Z,11.40
2022-11-24T12:04:27.240Z,10.20
2022-11-24T12:05:27.241Z,10.40
2022-11-24T12:06:27.318Z,11.00
2022-11-24T12:07:27.668Z,10.50
2022-11-24T12:08:49.603Z,10.30
2022-11-24T12:09:33.589Z,10.80
2022-11-24T12:10:33.242Z,10.10
2022-11-24T12:11:33.447Z,9.40
2022-11-24T12:12:33.264Z,9.40
2022-11-24T12:13:33.277Z,10.00
2022-11-24T12:14:33.252Z,9.30
2022-11-24T12:15:33.292Z,10.30
2022-11-24T12:16:33.322Z,9.80
2022-11-24T12:17:33.407Z,11.40
2022-11-24T12:18:56.692Z,10.10
2022-11-24T12:19:33.713Z,12.50
2022-11-24T12:20:33.313Z,13.70
2022-11-24T12:21:33.318Z,12.20
2022-11-24T12:22:33.306Z,10.20
2022-11-24T12:23:33.440Z,11.30
2022-11-24T12:24:33.379Z,9.70
2022-11-24T12:25:33.369Z,10.50
2022-11-24T12:26:33.349Z,11.20
2022-11-24T12:27:33.391Z,10.90
2022-11-24T12:28:33.369Z,11.30
2022-11-24T12:29:33.871Z,10.20
2022-11-24T12:30:33.465Z,11.20
2022-11-24T12:31:33.553Z,10.40
2022-11-24T12:32:33.443Z,10.20
2022-11-24T12:33:38.453Z,10.70
2022-11-24T12:34:38.629Z,11.60
2022-11-24T12:35:43.379Z,10.60
2022-11-24T12:36:43.539Z,10.60
2022-11-24T12:37:43.543Z,10.40
2022-11-24T12:38:43.572Z,10.30
2022-11-24T12:39:43.669Z,9.90
2022-11-24T12:40:49.506Z,11.20
2022-11-24T12:41:49.652Z,10.30
2022-11-24T12:42:49.614Z,11.00
2022-11-24T12:43:49.657Z,11.30
2022-11-24T12:44:49.665Z,10.10
2022-11-24T12:45:49.687Z,10.30
2022-11-24T12:46:49.726Z,10.80
2022-11-24T12:47:49.734Z,10.90
2022-11-24T12:48:49.706Z,10.10
2022-11-24T12:49:49.838Z,10.50
2022-11-24T12:50:49.782Z,9.00
2022-11-24T12:51:49.789Z,10.30
2022-11-24T12:52:54.119Z,11.00
2022-11-24T12:53:49.820Z,10.30
2022-11-24T12:54:49.820Z,11.90
2022-11-24T12:55:49.975Z,10.70
2022-11-24T12:56:49.867Z,10.90
2022-11-24T12:57:54.803Z,10.00
2022-11-24T12:58:54.935Z,10.20
2022-11-24T12:59:54.945Z,10.50
2022-11-24T13:00:55.004Z,11.30
2022-11-24T13:01:55.068Z,10.40
2022-11-24T13:02:55.196Z,10.10
2022-11-24T13:03:55.005Z,11.50
2022-11-24T13:04:55.061Z,10.70
2022-11-24T13:05:55.062Z,11.50
2022-11-24T13:06:55.066Z,11.70
2022-11-24T13:07:55.195Z,11.90
2022-11-24T13:08:55.108Z,10.90
2022-11-24T13:09:55.109Z,11.80
2022-11-24T13:10:57.484Z,11.00
2022-11-24T13:12:00.512Z,11.70
2022-11-24T13:12:55.206Z,10.80
2022-11-24T13:13:55.216Z,10.90
2022-11-24T13:14:55.236Z,10.80
2022-11-24T13:16:13.455Z,10.90
2022-11-24T13:17:21.875Z,10.80